• Join FlightAware (Why Join?)
  • Login
  • US Flag 
02:59AM EST


 

Airport Tracker/Info


-or-


 

Live Flight TrackerFlight Track Log ✈ N54KP ✈ 27-Jun-2013 ✈ KMBO - KJKA

Flight Track Log - Related Links

Times and Time Zones

All times are in EDT time to prevent confusion due to time zone crossing. See the N54KP flight status page for this flight to view local times or setup timezone preferences in your user account.

Time Position Orientation Groundspeed Altitude Reporting Facility
EDT Latitude Longitude Course Direction KTS MPH feet Rate Location/Type
04:10PM 32.2918 -89.9335 135° Southeast  Level FlightAware Approximate
04:11PM 32.2638 -89.8999 135° Southeast  Level FlightAware Approximate
04:12PM 32.2356 -89.8665 135° Southeast  Level FlightAware Approximate
04:13PM 32.2072 -89.8333 135° Southeast  Level FlightAware Approximate
04:13PM 32.2681 -89.8586 135° Southeast 122 140 5,500  Level Memphis Center
04:14PM 32.1789 -89.8002 135° Southeast  Level FlightAware Approximate
04:14PM 32.2450 -89.8267 130° Southeast 122 140 5,900  Level Memphis Center
04:15PM 32.1505 -89.7671 135° Southeast  Level FlightAware Approximate
04:15PM 32.2217 -89.7975 133° Southeast 122 140 6,400  Level Memphis Center
04:16PM 32.1221 -89.7339 135° Southeast  Level FlightAware Approximate
04:16PM 32.1944 -89.7656 135° Southeast 122 140 6,900  Level Memphis Center
04:17PM 32.0937 -89.7009 135° Southeast  Level FlightAware Approximate
04:17PM 32.1672 -89.7364 138° Southeast 122 140 7,100  Level Memphis Center
04:18PM 32.0653 -89.6678 135° Southeast  Level FlightAware Approximate
04:18PM 32.1400 -89.7047 135° Southeast 127 146 7,100  Level Memphis Center
04:19PM 32.1083 -89.6706 138° Southeast 138 159 7,100  Level Memphis Center
04:20PM 32.0747 -89.6367 139° Southeast 143 165 7,100  Level Memphis Center
04:21PM 32.0453 -89.6050 138° Southeast 148 170 7,100  Level Memphis Center
04:22PM 32.0119 -89.5733 141° Southeast 153 176 7,100  Level Memphis Center
04:23PM 31.9803 -89.5344 134° Southeast 158 182 7,100  Level Memphis Center
04:24PM 31.9528 -89.5006 134° Southeast 158 182 7,100  Level Memphis Center
04:25PM 31.9233 -89.4617 132° Southeast 152 175 7,100  Level Memphis Center
04:26PM 31.8961 -89.4275 133° Southeast 146 168 7,100 60 Level Memphis Center
04:26PM 31.8744 -89.4133 151° Southeast 152 175 7,200 60 Climbing Houston Center
04:28PM 31.8442 -89.3794 136° Southeast 151 174 7,200  Level Houston Center
04:29PM 31.8158 -89.3408 131° Southeast 154 177 7,200  Level Houston Center
04:30PM 31.7842 -89.3069 138° Southeast 154 177 7,200  Level Houston Center
04:31PM 31.7519 -89.2750 140° Southeast 152 175 7,200  Level Houston Center
04:32PM 31.7144 -89.2347 138° Southeast 152 175 7,200 -120 Level Houston Center
04:33PM 31.6825 -89.2019 139° Southeast 153 176 7,000 -120 Descending Houston Center
04:34PM 31.6503 -89.1658 136° Southeast 158 182 7,000  Level Houston Center
04:35PM 31.6208 -89.1347 138° Southeast 148 170 7,000  Level Houston Center
04:36PM 31.5897 -89.1006 137° Southeast 151 174 7,000  Level Houston Center
04:37PM 31.5519 -89.0617 139° Southeast 151 174 7,000  Level Houston Center
04:38PM 31.5211 -89.0294 138° Southeast 149 171 7,000  Level Houston Center
04:39PM 31.4894 -88.9953 137° Southeast 153 176 7,000  Level Houston Center
04:40PM 31.4600 -88.9631 137° Southeast 148 170 7,000  Level Houston Center
04:41PM 31.4294 -88.9311 138° Southeast 147 169 7,000  Level Houston Center
04:42PM 31.3989 -88.8972 137° Southeast 151 174 7,000  Level Houston Center
04:43PM 31.3639 -88.8553 134° Southeast 150 173 7,000  Level Houston Center
04:44PM 31.3339 -88.8192 134° Southeast 153 176 7,000  Level Houston Center
04:45PM 31.3044 -88.7850 135° Southeast 152 175 7,000  Level Houston Center
04:46PM 31.2739 -88.7500 136° Southeast 152 175 7,000  Level Houston Center
04:47PM 31.2436 -88.7161 136° Southeast 152 175 7,100  Climbing Houston Center
04:48PM 31.2078 -88.6758 136° Southeast 151 174 7,100  Level Houston Center
04:49PM 31.1764 -88.6417 137° Southeast 152 175 7,100  Level Houston Center
04:50PM 31.1456 -88.6081 137° Southeast 152 175 7,100 -60 Level Houston Center
04:51PM 31.1153 -88.5742 136° Southeast 152 175 7,000 -60 Descending Houston Center
04:52PM 31.0847 -88.5386 135° Southeast 154 177 7,000  Level Houston Center
04:53PM 31.0506 -88.4931 131° Southeast 155 178 7,100 -180 Climbing Houston Center
04:54PM 31.0194 -88.4575 136° Southeast 158 182 6,700 -420 Descending Houston Center
04:55PM 30.9861 -88.4206 136° Southeast 164 189 6,300 -420 Descending Houston Center
04:56PM 30.9531 -88.3817 135° Southeast 168 193 5,900 -480 Descending Houston Center
04:58PM 30.9186 -88.3469 139° Southeast 167 192 5,400 -420 Descending Houston Center
04:59PM 30.8761 -88.3086 142° Southeast 164 189 5,100 -180 Descending Houston Center
05:00PM 30.8444 -88.2761 139° Southeast 157 181 5,100  Level Houston Center
05:02PM 30.7842 -88.2111 137° Southeast 149 171 5,100  Level Houston Center
05:03PM 30.7536 -88.1806 139° Southeast 147 169 5,100 -60 Level Houston Center
05:04PM 30.7161 -88.1436 140° Southeast 147 169 5,000 -120 Descending Houston Center
05:05PM 30.6850 -88.1139 141° Southeast 146 168 4,900 -240 Descending Houston Center
05:06PM 30.6522 -88.0811 139° Southeast 152 175 4,600 -360 Descending Houston Center
05:07PM 30.6200 -88.0447 136° Southeast 158 182 4,200 -420 Descending Houston Center
05:08PM 30.5889 -88.0078 134° Southeast 159 183 3,800 -420 Descending Houston Center
05:09PM 30.5592 -87.9728 135° Southeast 157 181 3,400 -420 Descending Houston Center
05:10PM 30.5211 -87.9306 136° Southeast 157 181 3,000 -420 Descending Houston Center
05:11PM 30.4903 -87.8947 135° Southeast 157 181 2,600 -420 Descending Houston Center
05:12PM 30.4625 -87.8581 131° Southeast 154 177 2,200 -300 Descending Houston Center
05:13PM 30.4361 -87.8214 130° Southeast 151 174 2,000 -120 Descending Houston Center
05:14PM 30.4117 -87.7867 129° Southeast 145 167 2,000  Level Houston Center
05:15PM 30.3836 -87.7467 129° Southeast 138 159 2,000  Level Houston Center
05:17PM 30.3270 -87.7249 131° Southeast  Level FlightAware Approximate
05:24PM 30.2896 -87.6718 131° Southeast  Level Estimated
05:25PM 30.2896 -87.6718 131° Southeast  Level Estimated
05:26PM 30.2896 -87.6718 131° Southeast  Level Estimated